sensor_id;sensor_type;location;lat;lon;timestamp;temperature;humidity
29237;DHT22;16266;50.866;4.398;2023-02-02T00:00:43;9.50;99.90
29237;DHT22;16266;50.866;4.398;2023-02-02T00:03:09;9.50;99.90
29237;DHT22;16266;50.866;4.398;2023-02-02T00:05:35;9.50;99.90
29237;DHT22;16266;50.866;4.398;2023-02-02T00:08:01;9.50;99.90
29237;DHT22;16266;50.866;4.398;2023-02-02T00:10:27;9.50;99.90
29237;DHT22;16266;50.866;4.398;2023-02-02T00:12:53;9.50;99.90
29237;DHT22;16266;50.866;4.398;2023-02-02T00:15:23;9.50;99.90
29237;DHT22;16266;50.866;4.398;2023-02-02T00:17:48;9.50;99.90
29237;DHT22;16266;50.866;4.398;2023-02-02T00:20:14;9.50;99.90
29237;DHT22;16266;50.866;4.398;2023-02-02T00:22:40;9.50;99.90
29237;DHT22;16266;50.866;4.398;2023-02-02T00:25:06;9.40;99.90
29237;DHT22;16266;50.866;4.398;2023-02-02T00:27:32;9.40;99.90
29237;DHT22;16266;50.866;4.398;2023-02-02T00:29:58;9.40;99.90
29237;DHT22;16266;50.866;4.398;2023-02-02T00:32:23;9.40;99.90
29237;DHT22;16266;50.866;4.398;2023-02-02T00:34:49;9.40;99.90
29237;DHT22;16266;50.866;4.398;2023-02-02T00:37:14;9.40;99.90
29237;DHT22;16266;50.866;4.398;2023-02-02T00:39:40;9.50;99.90
29237;DHT22;16266;50.866;4.398;2023-02-02T00:42:11;9.50;99.90
29237;DHT22;16266;50.866;4.398;2023-02-02T00:44:37;9.40;99.90
29237;DHT22;16266;50.866;4.398;2023-02-02T00:47:21;9.40;99.90
29237;DHT22;16266;50.866;4.398;2023-02-02T00:49:47;9.50;99.90
29237;DHT22;16266;50.866;4.398;2023-02-02T00:52:13;9.40;99.90
29237;DHT22;16266;50.866;4.398;2023-02-02T00:54:39;9.40;99.90
29237;DHT22;16266;50.866;4.398;2023-02-02T00:57:05;9.40;99.90
29237;DHT22;16266;50.866;4.398;2023-02-02T00:59:30;9.40;99.90
29237;DHT22;16266;50.866;4.398;2023-02-02T01:01:56;9.40;99.90
29237;DHT22;16266;50.866;4.398;2023-02-02T01:04:22;9.40;99.90
29237;DHT22;16266;50.866;4.398;2023-02-02T01:06:48;9.40;99.90
29237;DHT22;16266;50.866;4.398;2023-02-02T01:09:13;9.40;99.90
29237;DHT22;16266;50.866;4.398;2023-02-02T01:11:39;9.40;99.90
29237;DHT22;16266;50.866;4.398;2023-02-02T01:14:05;9.40;99.90
29237;DHT22;16266;50.866;4.398;2023-02-02T01:16:30;9.40;99.90
29237;DHT22;16266;50.866;4.398;2023-02-02T01:18:56;9.40;99.90
29237;DHT22;16266;50.866;4.398;2023-02-02T01:21:22;9.40;99.90
29237;DHT22;16266;50.866;4.398;2023-02-02T01:23:48;9.40;99.90
29237;DHT22;16266;50.866;4.398;2023-02-02T01:26:14;9.40;99.90
29237;DHT22;16266;50.866;4.398;2023-02-02T01:28:40;9.40;99.90
29237;DHT22;16266;50.866;4.398;2023-02-02T01:31:08;9.40;99.90
29237;DHT22;16266;50.866;4.398;2023-02-02T01:33:34;9.40;99.90
29237;DHT22;16266;50.866;4.398;2023-02-02T01:36:03;9.40;99.90
29237;DHT22;16266;50.866;4.398;2023-02-02T01:38:30;9.40;99.90
29237;DHT22;16266;50.866;4.398;2023-02-02T01:40:56;9.40;99.90
29237;DHT22;16266;50.866;4.398;2023-02-02T01:43:27;9.40;99.90
29237;DHT22;16266;50.866;4.398;2023-02-02T01:45:54;9.40;99.90
29237;DHT22;16266;50.866;4.398;2023-02-02T01:48:23;9.40;99.90
29237;DHT22;16266;50.866;4.398;2023-02-02T01:50:52;9.50;99.90
29237;DHT22;16266;50.866;4.398;2023-02-02T01:53:20;9.60;99.90
29237;DHT22;16266;50.866;4.398;2023-02-02T01:55:47;9.50;99.90
29237;DHT22;16266;50.866;4.398;2023-02-02T01:58:25;9.50;99.90
29237;DHT22;16266;50.866;4.398;2023-02-02T02:00:52;9.50;99.90
29237;DHT22;16266;50.866;4.398;2023-02-02T02:03:20;9.50;99.90
29237;DHT22;16266;50.866;4.398;2023-02-02T02:05:54;9.50;99.90
29237;DHT22;16266;50.866;4.398;2023-02-02T02:08:27;9.60;99.90
29237;DHT22;16266;50.866;4.398;2023-02-02T02:10:53;9.50;99.90
29237;DHT22;16266;50.866;4.398;2023-02-02T02:13:22;9.50;99.90
29237;DHT22;16266;50.866;4.398;2023-02-02T02:21:50;9.40;99.90
29237;DHT22;16266;50.866;4.398;2023-02-02T02:27:57;9.20;99.90
29237;DHT22;16266;50.866;4.398;2023-02-02T02:33:26;9.40;99.90
29237;DHT22;16266;50.866;4.398;2023-02-02T02:41:27;9.40;99.90
29237;DHT22;16266;50.866;4.398;2023-02-02T02:43:58;9.40;99.90
29237;DHT22;16266;50.866;4.398;2023-02-02T02:46:25;9.40;99.90
29237;DHT22;16266;50.866;4.398;2023-02-02T02:48:52;9.50;99.90
29237;DHT22;16266;50.866;4.398;2023-02-02T02:54:23;9.60;99.90
29237;DHT22;16266;50.866;4.398;2023-02-02T02:59:45;9.60;99.90
29237;DHT22;16266;50.866;4.398;2023-02-02T03:02:41;9.60;99.90
29237;DHT22;16266;50.866;4.398;2023-02-02T03:10:46;9.40;99.90
29237;DHT22;16266;50.866;4.398;2023-02-02T03:13:13;9.40;99.90
29237;DHT22;16266;50.866;4.398;2023-02-02T03:15:45;9.40;99.90
29237;DHT22;16266;50.866;4.398;2023-02-02T03:18:12;9.50;99.90
29237;DHT22;16266;50.866;4.398;2023-02-02T03:20:39;9.40;99.90
29237;DHT22;16266;50.866;4.398;2023-02-02T03:23:06;9.50;99.90
29237;DHT22;16266;50.866;4.398;2023-02-02T03:25:32;9.40;99.90
29237;DHT22;16266;50.866;4.398;2023-02-02T03:27:58;9.30;99.90
29237;DHT22;16266;50.866;4.398;2023-02-02T03:30:24;9.30;99.90
29237;DHT22;16266;50.866;4.398;2023-02-02T03:32:51;9.30;99.90
29237;DHT22;16266;50.866;4.398;2023-02-02T03:35:16;9.30;99.90
29237;DHT22;16266;50.866;4.398;2023-02-02T03:37:45;9.40;99.90
29237;DHT22;16266;50.866;4.398;2023-02-02T03:40:12;9.40;99.90
29237;DHT22;16266;50.866;4.398;2023-02-02T03:42:37;9.30;99.90
29237;DHT22;16266;50.866;4.398;2023-02-02T03:45:03;9.30;99.90
29237;DHT22;16266;50.866;4.398;2023-02-02T03:47:30;9.30;99.90
29237;DHT22;16266;50.866;4.398;2023-02-02T03:49:56;9.40;99.90
29237;DHT22;16266;50.866;4.398;2023-02-02T03:52:22;9.20;99.90
29237;DHT22;16266;50.866;4.398;2023-02-02T03:54:47;9.30;99.90
29237;DHT22;16266;50.866;4.398;2023-02-02T03:57:13;9.30;99.90
29237;DHT22;16266;50.866;4.398;2023-02-02T03:59:39;9.30;99.90
29237;DHT22;16266;50.866;4.398;2023-02-02T04:02:04;9.30;99.90
29237;DHT22;16266;50.866;4.398;2023-02-02T04:04:30;9.40;99.90
29237;DHT22;16266;50.866;4.398;2023-02-02T04:06:55;9.40;99.90
29237;DHT22;16266;50.866;4.398;2023-02-02T04:09:23;9.40;99.90
29237;DHT22;16266;50.866;4.398;2023-02-02T04:11:49;9.30;99.90
29237;DHT22;16266;50.866;4.398;2023-02-02T04:14:14;9.20;99.90
29237;DHT22;16266;50.866;4.398;2023-02-02T04:16:40;9.20;99.90
29237;DHT22;16266;50.866;4.398;2023-02-02T04:19:06;9.20;99.90
29237;DHT22;16266;50.866;4.398;2023-02-02T04:21:32;9.20;99.90
29237;DHT22;16266;50.866;4.398;2023-02-02T04:23:57;9.20;99.90
29237;DHT22;16266;50.866;4.398;2023-02-02T04:26:23;9.30;99.90
29237;DHT22;16266;50.866;4.398;2023-02-02T04:28:51;9.20;99.90
29237;DHT22;16266;50.866;4.398;2023-02-02T04:31:18;9.30;99.90
29237;DHT22;16266;50.866;4.398;2023-02-02T04:33:44;9.20;99.90
29237;DHT22;16266;50.866;4.398;2023-02-02T04:36:11;9.20;99.90
29237;DHT22;16266;50.866;4.398;2023-02-02T04:38:37;9.30;99.90
29237;DHT22;16266;50.866;4.398;2023-02-02T04:41:10;9.20;99.90
29237;DHT22;16266;50.866;4.398;2023-02-02T04:43:37;9.20;99.90
29237;DHT22;16266;50.866;4.398;2023-02-02T04:46:03;9.20;99.90
29237;DHT22;16266;50.866;4.398;2023-02-02T04:48:29;9.30;99.90
29237;DHT22;16266;50.866;4.398;2023-02-02T04:51:06;9.30;99.90
29237;DHT22;16266;50.866;4.398;2023-02-02T04:53:32;9.30;99.90
29237;DHT22;16266;50.866;4.398;2023-02-02T04:56:07;9.30;99.90
29237;DHT22;16266;50.866;4.398;2023-02-02T04:58:33;9.30;99.90
29237;DHT22;16266;50.866;4.398;2023-02-02T05:00:59;9.40;99.90
29237;DHT22;16266;50.866;4.398;2023-02-02T05:03:25;9.30;99.90
29237;DHT22;16266;50.866;4.398;2023-02-02T05:05:50;9.30;99.90
29237;DHT22;16266;50.866;4.398;2023-02-02T05:08:16;9.20;99.90
29237;DHT22;16266;50.866;4.398;2023-02-02T05:10:41;9.10;99.90
29237;DHT22;16266;50.866;4.398;2023-02-02T05:13:08;9.00;99.90
29237;DHT22;16266;50.866;4.398;2023-02-02T05:15:34;8.80;99.90
29237;DHT22;16266;50.866;4.398;2023-02-02T05:18:00;8.70;99.90
29237;DHT22;16266;50.866;4.398;2023-02-02T05:20:26;8.60;99.90
29237;DHT22;16266;50.866;4.398;2023-02-02T05:22:51;8.60;99.90
29237;DHT22;16266;50.866;4.398;2023-02-02T05:25:17;8.60;99.90
29237;DHT22;16266;50.866;4.398;2023-02-02T05:27:44;8.70;99.90
29237;DHT22;16266;50.866;4.398;2023-02-02T05:30:11;8.70;99.90
29237;DHT22;16266;50.866;4.398;2023-02-02T05:32:37;8.70;99.90
29237;DHT22;16266;50.866;4.398;2023-02-02T05:35:03;8.80;99.90
29237;DHT22;16266;50.866;4.398;2023-02-02T05:37:28;8.80;99.90
29237;DHT22;16266;50.866;4.398;2023-02-02T05:39:54;8.80;99.90
29237;DHT22;16266;50.866;4.398;2023-02-02T05:42:20;8.70;99.90
29237;DHT22;16266;50.866;4.398;2023-02-02T05:44:45;8.80;99.90
29237;DHT22;16266;50.866;4.398;2023-02-02T05:47:11;8.70;99.90
29237;DHT22;16266;50.866;4.398;2023-02-02T05:49:37;8.80;99.90
29237;DHT22;16266;50.866;4.398;2023-02-02T05:52:03;8.70;99.90
29237;DHT22;16266;50.866;4.398;2023-02-02T05:54:28;8.80;99.90
29237;DHT22;16266;50.866;4.398;2023-02-02T05:56:54;8.80;99.90
29237;DHT22;16266;50.866;4.398;2023-02-02T05:59:20;8.70;99.90
29237;DHT22;16266;50.866;4.398;2023-02-02T06:01:47;8.80;99.90
29237;DHT22;16266;50.866;4.398;2023-02-02T06:04:13;8.80;99.90
29237;DHT22;16266;50.866;4.398;2023-02-02T06:06:39;8.80;99.90
29237;DHT22;16266;50.866;4.398;2023-02-02T06:09:06;8.70;99.90
29237;DHT22;16266;50.866;4.398;2023-02-02T06:11:32;8.50;99.90
29237;DHT22;16266;50.866;4.398;2023-02-02T06:13:58;8.40;99.90
29237;DHT22;16266;50.866;4.398;2023-02-02T06:16:26;8.50;99.90
29237;DHT22;16266;50.866;4.398;2023-02-02T06:18:53;8.40;99.90
29237;DHT22;16266;50.866;4.398;2023-02-02T06:21:18;8.40;99.90
29237;DHT22;16266;50.866;4.398;2023-02-02T06:23:47;8.40;99.90
29237;DHT22;16266;50.866;4.398;2023-02-02T06:26:14;8.40;99.90
29237;DHT22;16266;50.866;4.398;2023-02-02T06:28:41;8.40;99.90
29237;DHT22;16266;50.866;4.398;2023-02-02T06:31:08;8.40;99.90
29237;DHT22;16266;50.866;4.398;2023-02-02T06:33:34;8.30;99.90
29237;DHT22;16266;50.866;4.398;2023-02-02T06:36:01;8.40;99.90
29237;DHT22;16266;50.866;4.398;2023-02-02T06:38:27;8.30;99.90
29237;DHT22;16266;50.866;4.398;2023-02-02T06:40:53;8.30;99.90
29237;DHT22;16266;50.866;4.398;2023-02-02T06:43:19;8.30;99.90
29237;DHT22;16266;50.866;4.398;2023-02-02T06:45:44;8.30;99.90
29237;DHT22;16266;50.866;4.398;2023-02-02T06:48:10;8.30;99.90
29237;DHT22;16266;50.866;4.398;2023-02-02T06:50:39;8.20;99.90
29237;DHT22;16266;50.866;4.398;2023-02-02T06:53:05;8.20;99.90
29237;DHT22;16266;50.866;4.398;2023-02-02T06:55:31;8.20;99.90
29237;DHT22;16266;50.866;4.398;2023-02-02T06:57:58;8.20;99.90
29237;DHT22;16266;50.866;4.398;2023-02-02T07:00:25;8.20;99.90
29237;DHT22;16266;50.866;4.398;2023-02-02T07:02:51;8.30;99.90
29237;DHT22;16266;50.866;4.398;2023-02-02T07:05:16;8.30;99.90
29237;DHT22;16266;50.866;4.398;2023-02-02T07:07:44;8.30;99.90
29237;DHT22;16266;50.866;4.398;2023-02-02T07:10:10;8.30;99.90
29237;DHT22;16266;50.866;4.398;2023-02-02T07:12:36;8.30;99.90
29237;DHT22;16266;50.866;4.398;2023-02-02T07:15:02;8.40;99.90
29237;DHT22;16266;50.866;4.398;2023-02-02T07:17:28;8.40;99.90
29237;DHT22;16266;50.866;4.398;2023-02-02T07:19:54;8.40;99.90
29237;DHT22;16266;50.866;4.398;2023-02-02T07:22:19;8.40;99.90
29237;DHT22;16266;50.866;4.398;2023-02-02T07:24:45;8.40;99.90
29237;DHT22;16266;50.866;4.398;2023-02-02T07:27:10;8.50;99.90
29237;DHT22;16266;50.866;4.398;2023-02-02T07:29:36;8.50;99.90
29237;DHT22;16266;50.866;4.398;2023-02-02T07:32:01;8.40;99.90
29237;DHT22;16266;50.866;4.398;2023-02-02T07:34:27;8.50;99.90
29237;DHT22;16266;50.866;4.398;2023-02-02T07:37:09;8.50;99.90
29237;DHT22;16266;50.866;4.398;2023-02-02T07:39:35;8.50;99.90
29237;DHT22;16266;50.866;4.398;2023-02-02T07:42:01;8.50;99.90
29237;DHT22;16266;50.866;4.398;2023-02-02T07:44:27;8.50;99.90
29237;DHT22;16266;50.866;4.398;2023-02-02T07:46:52;8.40;99.90
29237;DHT22;16266;50.866;4.398;2023-02-02T07:49:18;8.40;99.90
29237;DHT22;16266;50.866;4.398;2023-02-02T07:51:44;8.50;99.90
29237;DHT22;16266;50.866;4.398;2023-02-02T07:54:12;8.50;99.90
29237;DHT22;16266;50.866;4.398;2023-02-02T07:56:38;8.50;99.90
29237;DHT22;16266;50.866;4.398;2023-02-02T07:59:04;8.50;99.90
29237;DHT22;16266;50.866;4.398;2023-02-02T08:01:30;8.60;99.90
29237;DHT22;16266;50.866;4.398;2023-02-02T08:03:57;8.60;99.90
29237;DHT22;16266;50.866;4.398;2023-02-02T08:06:32;8.60;99.90
29237;DHT22;16266;50.866;4.398;2023-02-02T08:08:59;8.60;99.90
29237;DHT22;16266;50.866;4.398;2023-02-02T08:11:26;8.60;99.90
29237;DHT22;16266;50.866;4.398;2023-02-02T08:13:55;8.60;99.90
29237;DHT22;16266;50.866;4.398;2023-02-02T08:16:22;8.60;99.90
29237;DHT22;16266;50.866;4.398;2023-02-02T08:18:48;8.70;99.90
29237;DHT22;16266;50.866;4.398;2023-02-02T08:21:14;8.80;99.90
29237;DHT22;16266;50.866;4.398;2023-02-02T08:23:40;8.90;99.90
29237;DHT22;16266;50.866;4.398;2023-02-02T08:26:15;9.10;99.90
29237;DHT22;16266;50.866;4.398;2023-02-02T08:28:43;9.20;99.90
29237;DHT22;16266;50.866;4.398;2023-02-02T08:31:22;9.30;99.90
29237;DHT22;16266;50.866;4.398;2023-02-02T08:33:48;9.40;99.90
29237;DHT22;16266;50.866;4.398;2023-02-02T08:36:16;9.50;99.90
29237;DHT22;16266;50.866;4.398;2023-02-02T08:38:42;9.70;99.90
29237;DHT22;16266;50.866;4.398;2023-02-02T08:41:10;9.70;99.90
29237;DHT22;16266;50.866;4.398;2023-02-02T08:43:37;9.80;99.90
29237;DHT22;16266;50.866;4.398;2023-02-02T08:46:03;9.80;99.90
29237;DHT22;16266;50.866;4.398;2023-02-02T08:48:28;9.80;99.90
29237;DHT22;16266;50.866;4.398;2023-02-02T08:50:55;10.00;99.90
29237;DHT22;16266;50.866;4.398;2023-02-02T08:53:22;10.00;99.90
29237;DHT22;16266;50.866;4.398;2023-02-02T08:55:48;10.00;99.90
29237;DHT22;16266;50.866;4.398;2023-02-02T08:58:13;10.00;99.90
29237;DHT22;16266;50.866;4.398;2023-02-02T09:00:40;10.10;99.90
29237;DHT22;16266;50.866;4.398;2023-02-02T09:03:05;10.10;99.90
29237;DHT22;16266;50.866;4.398;2023-02-02T09:05:31;10.20;99.90
29237;DHT22;16266;50.866;4.398;2023-02-02T09:07:57;10.20;99.90
29237;DHT22;16266;50.866;4.398;2023-02-02T09:10:22;10.20;99.90
29237;DHT22;16266;50.866;4.398;2023-02-02T09:12:48;10.30;99.90
29237;DHT22;16266;50.866;4.398;2023-02-02T09:15:14;10.40;99.90
29237;DHT22;16266;50.866;4.398;2023-02-02T09:17:39;10.40;99.90
29237;DHT22;16266;50.866;4.398;2023-02-02T09:20:05;10.50;99.90
29237;DHT22;16266;50.866;4.398;2023-02-02T09:22:32;10.60;99.90
29237;DHT22;16266;50.866;4.398;2023-02-02T09:24:57;10.50;99.90
29237;DHT22;16266;50.866;4.398;2023-02-02T09:27:23;10.70;99.90
29237;DHT22;16266;50.866;4.398;2023-02-02T09:29:48;11.00;99.90
29237;DHT22;16266;50.866;4.398;2023-02-02T09:32:14;10.90;99.90
29237;DHT22;16266;50.866;4.398;2023-02-02T09:34:40;11.00;99.90
29237;DHT22;16266;50.866;4.398;2023-02-02T09:37:05;11.00;99.90
29237;DHT22;16266;50.866;4.398;2023-02-02T09:39:31;11.00;99.90
29237;DHT22;16266;50.866;4.398;2023-02-02T09:45:17;11.40;99.90
29237;DHT22;16266;50.866;4.398;2023-02-02T09:50:42;11.50;99.90
29237;DHT22;16266;50.866;4.398;2023-02-02T09:53:32;11.70;99.90
29237;DHT22;16266;50.866;4.398;2023-02-02T09:56:03;11.90;99.90
29237;DHT22;16266;50.866;4.398;2023-02-02T10:01:11;12.30;99.90
29237;DHT22;16266;50.866;4.398;2023-02-02T10:07:05;12.20;99.90
29237;DHT22;16266;50.866;4.398;2023-02-02T10:09:38;12.30;99.90
29237;DHT22;16266;50.866;4.398;2023-02-02T10:17:52;12.30;99.90
29237;DHT22;16266;50.866;4.398;2023-02-02T10:22:57;12.40;99.90
29237;DHT22;16266;50.866;4.398;2023-02-02T10:25:26;12.40;99.90
29237;DHT22;16266;50.866;4.398;2023-02-02T10:28:28;12.70;99.90
29237;DHT22;16266;50.866;4.398;2023-02-02T10:31:00;12.90;99.90
29237;DHT22;16266;50.866;4.398;2023-02-02T10:33:38;12.90;99.90
29237;DHT22;16266;50.866;4.398;2023-02-02T10:36:15;13.20;99.90
29237;DHT22;16266;50.866;4.398;2023-02-02T10:47:10;13.00;99.90
29237;DHT22;16266;50.866;4.398;2023-02-02T10:49:39;13.10;99.90
29237;DHT22;16266;50.866;4.398;2023-02-02T10:52:14;13.40;99.90
29237;DHT22;16266;50.866;4.398;2023-02-02T11:02:48;13.70;99.90
29237;DHT22;16266;50.866;4.398;2023-02-02T11:05:20;13.90;99.90
29237;DHT22;16266;50.866;4.398;2023-02-02T11:08:38;14.40;99.90
29237;DHT22;16266;50.866;4.398;2023-02-02T11:11:25;14.90;99.90
29237;DHT22;16266;50.866;4.398;2023-02-02T11:16:38;15.70;99.90
29237;DHT22;16266;50.866;4.398;2023-02-02T11:19:26;15.60;99.90
29237;DHT22;16266;50.866;4.398;2023-02-02T11:21:58;15.50;99.90
29237;DHT22;16266;50.866;4.398;2023-02-02T11:24:39;15.10;99.90
29237;DHT22;16266;50.866;4.398;2023-02-02T11:27:12;14.60;99.90
29237;DHT22;16266;50.866;4.398;2023-02-02T11:35:17;14.20;99.90
29237;DHT22;16266;50.866;4.398;2023-02-02T11:38:12;14.10;99.90
29237;DHT22;16266;50.866;4.398;2023-02-02T11:40:52;14.30;99.90
29237;DHT22;16266;50.866;4.398;2023-02-02T11:43:39;14.20;99.90
29237;DHT22;16266;50.866;4.398;2023-02-02T11:48:54;13.60;99.90
29237;DHT22;16266;50.866;4.398;2023-02-02T11:51:24;13.30;99.90
29237;DHT22;16266;50.866;4.398;2023-02-02T11:54:15;13.00;99.90
29237;DHT22;16266;50.866;4.398;2023-02-02T11:56:48;12.70;99.90
29237;DHT22;16266;50.866;4.398;2023-02-02T11:59:39;12.70;99.90
29237;DHT22;16266;50.866;4.398;2023-02-02T12:04:37;13.10;99.90
29237;DHT22;16266;50.866;4.398;2023-02-02T12:07:27;13.30;99.90
29237;DHT22;16266;50.866;4.398;2023-02-02T12:09:58;14.20;99.90
29237;DHT22;16266;50.866;4.398;2023-02-02T12:12:34;14.60;99.90
29237;DHT22;16266;50.866;4.398;2023-02-02T12:15:07;14.10;99.90
29237;DHT22;16266;50.866;4.398;2023-02-02T12:17:41;14.10;99.90
29237;DHT22;16266;50.866;4.398;2023-02-02T12:23:23;15.40;99.90
29237;DHT22;16266;50.866;4.398;2023-02-02T12:33:57;15.70;99.90
29237;DHT22;16266;50.866;4.398;2023-02-02T12:44:41;13.50;99.90
29237;DHT22;16266;50.866;4.398;2023-02-02T12:47:23;13.30;99.90
29237;DHT22;16266;50.866;4.398;2023-02-02T12:49:54;13.50;99.90
29237;DHT22;16266;50.866;4.398;2023-02-02T12:58:06;13.50;99.90
29237;DHT22;16266;50.866;4.398;2023-02-02T13:01:06;13.50;99.90
29237;DHT22;16266;50.866;4.398;2023-02-02T13:03:59;13.50;99.90
29237;DHT22;16266;50.866;4.398;2023-02-02T13:07:03;13.50;99.90
29237;DHT22;16266;50.866;4.398;2023-02-02T13:12:29;13.50;99.90
29237;DHT22;16266;50.866;4.398;2023-02-02T13:15:01;13.40;99.90
29237;DHT22;16266;50.866;4.398;2023-02-02T13:17:53;13.30;99.90
29237;DHT22;16266;50.866;4.398;2023-02-02T13:23:27;13.30;99.90
29237;DHT22;16266;50.866;4.398;2023-02-02T13:26:05;13.30;99.90
29237;DHT22;16266;50.866;4.398;2023-02-02T13:28:39;13.30;99.90
29237;DHT22;16266;50.866;4.398;2023-02-02T13:31:13;13.60;99.90
29237;DHT22;16266;50.866;4.398;2023-02-02T13:33:42;13.60;99.90
29237;DHT22;16266;50.866;4.398;2023-02-02T13:36:16;13.80;99.90
29237;DHT22;16266;50.866;4.398;2023-02-02T13:38:43;13.90;99.90
29237;DHT22;16266;50.866;4.398;2023-02-02T13:41:11;13.90;99.90
29237;DHT22;16266;50.866;4.398;2023-02-02T13:44:02;13.90;99.90
29237;DHT22;16266;50.866;4.398;2023-02-02T13:46:55;13.90;99.90
29237;DHT22;16266;50.866;4.398;2023-02-02T14:00:25;13.10;99.90
29237;DHT22;16266;50.866;4.398;2023-02-02T14:02:54;12.80;99.90
29237;DHT22;16266;50.866;4.398;2023-02-02T14:05:39;12.80;99.90
29237;DHT22;16266;50.866;4.398;2023-02-02T14:10:58;13.00;99.90
29237;DHT22;16266;50.866;4.398;2023-02-02T14:13:33;13.30;99.90
29237;DHT22;16266;50.866;4.398;2023-02-02T14:19:04;13.10;99.90
29237;DHT22;16266;50.866;4.398;2023-02-02T14:34:38;11.70;99.90
29237;DHT22;16266;50.866;4.398;2023-02-02T14:39:39;11.40;99.90
29237;DHT22;16266;50.866;4.398;2023-02-02T14:42:40;11.30;99.90
29237;DHT22;16266;50.866;4.398;2023-02-02T14:45:36;11.00;99.90
29237;DHT22;16266;50.866;4.398;2023-02-02T14:53:12;11.00;99.90
29237;DHT22;16266;50.866;4.398;2023-02-02T14:58:30;10.90;99.90
29237;DHT22;16266;50.866;4.398;2023-02-02T15:01:22;11.00;99.90
29237;DHT22;16266;50.866;4.398;2023-02-02T15:20:17;11.00;99.90
29237;DHT22;16266;50.866;4.398;2023-02-02T15:22:59;11.00;99.90
29237;DHT22;16266;50.866;4.398;2023-02-02T15:25:39;11.00;99.90
29237;DHT22;16266;50.866;4.398;2023-02-02T15:28:25;11.10;99.90
29237;DHT22;16266;50.866;4.398;2023-02-02T15:31:06;11.20;99.90
29237;DHT22;16266;50.866;4.398;2023-02-02T15:33:42;11.20;99.90
29237;DHT22;16266;50.866;4.398;2023-02-02T15:36:12;11.30;99.90
29237;DHT22;16266;50.866;4.398;2023-02-02T15:38:40;11.40;99.90
29237;DHT22;16266;50.866;4.398;2023-02-02T15:41:31;11.30;99.90
29237;DHT22;16266;50.866;4.398;2023-02-02T15:44:00;11.40;99.90
29237;DHT22;16266;50.866;4.398;2023-02-02T15:46:33;11.40;99.90
29237;DHT22;16266;50.866;4.398;2023-02-02T15:51:48;11.30;99.90
29237;DHT22;16266;50.866;4.398;2023-02-02T15:54:35;11.20;99.90
29237;DHT22;16266;50.866;4.398;2023-02-02T15:57:03;11.20;99.90
29237;DHT22;16266;50.866;4.398;2023-02-02T15:59:37;11.20;99.90
29237;DHT22;16266;50.866;4.398;2023-02-02T16:02:33;11.10;99.90
29237;DHT22;16266;50.866;4.398;2023-02-02T16:05:01;11.00;99.90
29237;DHT22;16266;50.866;4.398;2023-02-02T16:07:30;10.90;99.90
29237;DHT22;16266;50.866;4.398;2023-02-02T16:10:03;10.90;99.90
29237;DHT22;16266;50.866;4.398;2023-02-02T16:12:30;10.80;99.90
29237;DHT22;16266;50.866;4.398;2023-02-02T16:14:56;10.80;99.90
29237;DHT22;16266;50.866;4.398;2023-02-02T16:17:31;10.80;99.90
29237;DHT22;16266;50.866;4.398;2023-02-02T16:20:13;10.70;99.90
29237;DHT22;16266;50.866;4.398;2023-02-02T16:22:41;10.70;99.90
29237;DHT22;16266;50.866;4.398;2023-02-02T16:25:11;10.70;99.90
29237;DHT22;16266;50.866;4.398;2023-02-02T16:27:38;10.80;99.90
29237;DHT22;16266;50.866;4.398;2023-02-02T16:30:07;10.80;99.90
29237;DHT22;16266;50.866;4.398;2023-02-02T16:32:35;10.70;99.90
29237;DHT22;16266;50.866;4.398;2023-02-02T16:35:05;10.80;99.90
29237;DHT22;16266;50.866;4.398;2023-02-02T16:37:33;10.90;99.90
29237;DHT22;16266;50.866;4.398;2023-02-02T16:40:28;10.80;99.90
29237;DHT22;16266;50.866;4.398;2023-02-02T16:43:19;10.90;99.90
29237;DHT22;16266;50.866;4.398;2023-02-02T16:48:27;10.90;99.90
29237;DHT22;16266;50.866;4.398;2023-02-02T16:51:08;10.80;99.90
29237;DHT22;16266;50.866;4.398;2023-02-02T16:53:36;10.70;99.90
29237;DHT22;16266;50.866;4.398;2023-02-02T16:56:04;10.70;99.90
29237;DHT22;16266;50.866;4.398;2023-02-02T16:58:29;10.80;99.90
29237;DHT22;16266;50.866;4.398;2023-02-02T17:00:57;10.80;99.90
29237;DHT22;16266;50.866;4.398;2023-02-02T17:03:30;10.80;99.90
29237;DHT22;16266;50.866;4.398;2023-02-02T17:05:56;10.80;99.90
29237;DHT22;16266;50.866;4.398;2023-02-02T17:08:40;10.60;99.90
29237;DHT22;16266;50.866;4.398;2023-02-02T17:11:22;10.50;99.90
29237;DHT22;16266;50.866;4.398;2023-02-02T17:13:48;10.40;99.90
29237;DHT22;16266;50.866;4.398;2023-02-02T17:16:19;10.30;99.90
29237;DHT22;16266;50.866;4.398;2023-02-02T17:18:45;10.30;99.90
29237;DHT22;16266;50.866;4.398;2023-02-02T17:21:14;10.30;99.90
29237;DHT22;16266;50.866;4.398;2023-02-02T17:23:42;10.30;99.90
29237;DHT22;16266;50.866;4.398;2023-02-02T17:26:09;10.10;99.90
29237;DHT22;16266;50.866;4.398;2023-02-02T17:28:37;10.10;99.90
29237;DHT22;16266;50.866;4.398;2023-02-02T17:31:08;10.10;99.90
29237;DHT22;16266;50.866;4.398;2023-02-02T17:33:35;10.10;99.90
29237;DHT22;16266;50.866;4.398;2023-02-02T17:36:04;10.10;99.90
29237;DHT22;16266;50.866;4.398;2023-02-02T17:38:30;10.00;99.90
29237;DHT22;16266;50.866;4.398;2023-02-02T17:41:03;10.00;99.90
29237;DHT22;16266;50.866;4.398;2023-02-02T17:43:30;9.90;99.90
29237;DHT22;16266;50.866;4.398;2023-02-02T17:45:55;9.90;99.90
29237;DHT22;16266;50.866;4.398;2023-02-02T17:48:21;9.80;99.90
29237;DHT22;16266;50.866;4.398;2023-02-02T17:50:47;9.70;99.90
29237;DHT22;16266;50.866;4.398;2023-02-02T17:53:16;9.60;99.90
29237;DHT22;16266;50.866;4.398;2023-02-02T17:55:43;9.70;99.90
29237;DHT22;16266;50.866;4.398;2023-02-02T17:58:10;9.40;99.90
29237;DHT22;16266;50.866;4.398;2023-02-02T18:00:39;9.60;99.90
29237;DHT22;16266;50.866;4.398;2023-02-02T18:03:15;9.30;99.90
29237;DHT22;16266;50.866;4.398;2023-02-02T18:05:43;9.40;99.90
29237;DHT22;16266;50.866;4.398;2023-02-02T18:08:10;9.40;99.90
29237;DHT22;16266;50.866;4.398;2023-02-02T18:10:36;9.50;99.90
29237;DHT22;16266;50.866;4.398;2023-02-02T18:13:03;9.60;99.90
29237;DHT22;16266;50.866;4.398;2023-02-02T18:15:28;9.70;99.90
29237;DHT22;16266;50.866;4.398;2023-02-02T18:17:54;9.80;99.90
29237;DHT22;16266;50.866;4.398;2023-02-02T18:20:21;9.80;99.90
29237;DHT22;16266;50.866;4.398;2023-02-02T18:22:50;9.80;99.90
29237;DHT22;16266;50.866;4.398;2023-02-02T18:25:15;9.90;99.90
29237;DHT22;16266;50.866;4.398;2023-02-02T18:27:41;10.10;99.90
29237;DHT22;16266;50.866;4.398;2023-02-02T18:30:07;10.00;99.90
29237;DHT22;16266;50.866;4.398;2023-02-02T18:32:38;10.10;99.90
29237;DHT22;16266;50.866;4.398;2023-02-02T18:35:06;10.10;99.90
29237;DHT22;16266;50.866;4.398;2023-02-02T18:37:33;10.10;99.90
29237;DHT22;16266;50.866;4.398;2023-02-02T18:39:59;10.10;99.90
29237;DHT22;16266;50.866;4.398;2023-02-02T18:42:25;10.20;99.90
29237;DHT22;16266;50.866;4.398;2023-02-02T18:44:54;10.10;99.90
29237;DHT22;16266;50.866;4.398;2023-02-02T18:47:20;10.20;99.90
29237;DHT22;16266;50.866;4.398;2023-02-02T18:49:46;10.20;99.90